Time;durP1;ratioP1;P1;durP2;ratioP2;P2;SDS_P1;SDS_P2;PMS_P1;PMS_P2;Temp;Humidity;BMP_temperature;BMP_pressure;BME280_temperature;BME280_humidity;BME280_pressure;Samples;Min_cycle;Max_cycle;Signal;HPM_P1;HPM_P2
2023/09/30 00:18:59;;;;;;;3.83;1.60;;;20.40;58.50;;;;;;4878024;29;20277;-63
2023/09/30 02:19:50;;;;;;;4.43;1.80;;;20.20;57.60;;;;;;4933313;28;20283;-62
2023/09/30 03:10:13;;;;;;;3.83;1.45;;;20.10;57.20;;;;;;5017696;28;20285;-63
2023/09/30 05:50:23;;;;;;;3.38;1.40;;;19.90;56.50;;;;;;4855725;29;20261;-64
2023/09/30 06:20:08;;;;;;;4.43;1.50;;;19.90;56.40;;;;;;4802330;29;20229;-63
2023/09/30 06:23:31;;;;;;;3.67;1.35;;;19.90;56.40;;;;;;4802876;29;20213;-63
2023/09/30 06:33:11;;;;;;;5.03;1.42;;;19.80;56.30;;;;;;4755722;29;20214;-59
2023/09/30 06:36:00;;;;;;;;;;;;;;;;;;;;;
2023/09/30 07:36:41;;;;;;;2.92;1.02;;;19.80;56.20;;;;;;4805767;29;20807;-63
2023/09/30 08:02:43;;;;;;;3.38;1.40;;;19.80;56.30;;;;;;4878044;29;20251;-63
2023/09/30 08:52:31;;;;;;;5.35;1.55;;;19.80;56.50;;;;;;4858664;29;20211;-63
2023/09/30 08:54:59;;;;;;;5.68;1.67;;;19.80;56.60;;;;;;4859032;29;20314;-64
2023/09/30 08:57:37;;;;;;;5.63;1.50;;;19.80;56.60;;;;;;4859349;29;20215;-64
2023/09/30 09:06:54;;;;;;;4.25;1.70;;;19.80;56.60;;;;;;4857360;29;20294;-63
2023/09/30 09:20:10;;;;;;;4.60;1.75;;;19.80;56.70;;;;;;4879198;29;20271;-61
2023/09/30 09:43:29;;;;;;;3.67;1.60;;;19.80;56.80;;;;;;4785185;30;20201;-60
2023/09/30 09:56:11;;;;;;;6.18;2.08;;;19.80;56.90;;;;;;4726074;29;20223;-64
2023/09/30 10:02:12;;;;;;;4.68;1.67;;;19.80;56.90;;;;;;4762782;30;20214;-63
2023/09/30 10:12:21;;;;;;;5.03;1.80;;;19.90;57.00;;;;;;4728554;30;20694;-64
2023/09/30 10:18:59;;;;;;;9.43;1.98;;;19.90;57.10;;;;;;4895117;29;20288;-64
2023/09/30 10:45:01;;;;;;;4.60;1.92;;;19.80;57.00;;;;;;4875803;29;20221;-63
2023/09/30 10:47:54;;;;;;;5.25;1.73;;;19.80;57.00;;;;;;4860644;29;20226;-64
2023/09/30 10:57:16;;;;;;;3.33;1.30;;;19.90;57.10;;;;;;4875976;29;20220;-63
2023/09/30 11:00:27;;;;;;;5.18;1.80;;;19.90;57.20;;;;;;4875943;29;20321;-63
2023/09/30 11:02:57;;;;;;;5.10;1.90;;;19.90;57.20;;;;;;4875912;29;20199;-64
2023/09/30 11:14:45;;;;;;;;;;;;;;;;;;;;;
2023/09/30 11:31:26;;;;;;;4.53;1.75;;;19.90;57.30;;;;;;4954268;29;20223;-62
2023/09/30 11:52:40;;;;;;;4.18;1.38;;;19.90;57.40;;;;;;5119097;27;20567;-64
2023/09/30 11:55:37;;;;;;;3.45;1.55;;;20.00;57.30;;;;;;5109833;28;20299;-64
2023/09/30 11:58:09;;;;;;;4.47;1.67;;;20.00;57.20;;;;;;5103509;28;20275;-64
2023/09/30 12:00:37;;;;;;;2.75;1.63;;;20.00;57.20;;;;;;5100975;28;20305;-63
2023/09/30 12:11:38;;;;;;;6.72;1.77;;;20.20;57.40;;;;;;4971610;28;20232;-61
2023/09/30 12:14:06;;;;;;;4.95;1.63;;;20.30;57.50;;;;;;5003239;28;20217;-61
2023/09/30 12:16:34;;;;;;;6.30;2.17;;;20.40;57.60;;;;;;5015795;28;20279;-67
2023/09/30 12:19:02;;;;;;;5.80;1.30;;;20.40;57.60;;;;;;5003374;28;20238;-59
2023/09/30 12:21:32;;;;;;;4.40;2.30;;;20.50;57.50;;;;;;5019357;28;20237;-64
2023/09/30 12:24:01;;;;;;;7.47;1.52;;;20.50;57.50;;;;;;5022152;28;20197;-55
2023/09/30 12:26:34;;;;;;;13.52;1.70;;;20.60;57.50;;;;;;5023496;28;20714;-55
2023/09/30 12:29:03;;;;;;;13.05;2.35;;;20.60;57.60;;;;;;5004108;28;20705;-62
2023/09/30 12:31:40;;;;;;;5.72;2.22;;;20.60;57.60;;;;;;5010785;28;20228;-57
2023/09/30 12:36:49;;;;;;;9.32;2.15;;;20.70;57.60;;;;;;5066221;28;20205;-63
2023/09/30 12:39:23;;;;;;;8.57;1.80;;;20.70;57.70;;;;;;5066059;28;20811;-57
2023/09/30 12:41:56;;;;;;;11.18;2.25;;;20.80;57.70;;;;;;5071179;28;20193;-56
2023/09/30 12:45:07;;;;;;;10.25;2.30;;;20.70;57.60;;;;;;5094432;28;20308;-59
2023/09/30 12:47:35;;;;;;;11.18;2.28;;;20.80;57.60;;;;;;5088017;28;20197;-62
2023/09/30 12:50:16;;;;;;;11.27;2.28;;;20.90;57.70;;;;;;5095320;28;20233;-61
2023/09/30 12:52:44;;;;;;;4.93;1.70;;;20.80;57.90;;;;;;5097728;28;20216;-58
2023/09/30 12:55:13;;;;;;;9.02;2.10;;;20.80;57.90;;;;;;5090779;28;20222;-54
2023/09/30 12:57:40;;;;;;;5.97;2.10;;;20.90;57.90;;;;;;5099060;28;20205;-54
2023/09/30 13:00:11;;;;;;;15.90;2.35;;;20.90;57.80;;;;;;5095885;28;20271;-54
2023/09/30 13:02:39;;;;;;;8.35;2.42;;;20.90;57.80;;;;;;5091497;28;20246;-54
2023/09/30 13:07:48;;;;;;;11.00;2.35;;;20.90;57.80;;;;;;5039219;28;20215;-54
2023/09/30 13:12:58;;;;;;;8.23;2.20;;;21.00;57.90;;;;;;5083535;28;20214;-59
2023/09/30 13:15:26;;;;;;;5.90;2.53;;;21.00;58.10;;;;;;5081522;28;20213;-64
2023/09/30 13:17:53;;;;;;;7.00;2.45;;;21.00;58.00;;;;;;5084176;28;20198;-54
2023/09/30 13:20:20;;;;;;;10.90;2.97;;;21.00;58.00;;;;;;5082681;28;20598;-54
2023/09/30 13:23:18;;;;;;;8.90;2.92;;;21.10;58.10;;;;;;5082883;28;20205;-54
2023/09/30 13:25:47;;;;;;;7.90;2.67;;;21.10;58.10;;;;;;5073259;28;20245;-56
2023/09/30 13:28:14;;;;;;;11.57;3.22;;;21.10;57.90;;;;;;5073657;28;20221;-58
2023/09/30 13:30:41;;;;;;;9.60;2.85;;;21.20;58.10;;;;;;5074800;28;20303;-54
2023/09/30 13:33:08;;;;;;;6.00;2.88;;;21.10;58.00;;;;;;5073162;28;20199;-55
2023/09/30 13:35:36;;;;;;;4.85;2.40;;;21.10;58.10;;;;;;5082228;28;20236;-59
2023/09/30 13:38:04;;;;;;;8.23;3.08;;;21.20;58.20;;;;;;5080449;28;20279;-58
2023/09/30 13:40:31;;;;;;;7.28;3.10;;;21.20;58.30;;;;;;5079766;28;20237;-56
2023/09/30 13:43:00;;;;;;;6.50;2.72;;;21.20;58.20;;;;;;5082941;28;20687;-61
2023/09/30 13:45:28;;;;;;;6.03;2.83;;;21.20;58.20;;;;;;5079998;28;20228;-60
2023/09/30 13:47:55;;;;;;;6.65;3.03;;;21.20;58.10;;;;;;5081507;28;20198;-54
2023/09/30 13:50:22;;;;;;;9.43;2.75;;;21.20;58.20;;;;;;5081466;28;20226;-51
2023/09/30 13:52:50;;;;;;;10.93;3.08;;;21.20;58.20;;;;;;5080013;28;20334;-55
2023/09/30 13:55:23;;;;;;;8.50;3.13;;;21.20;58.20;;;;;;5078469;28;20221;-52
2023/09/30 13:58:07;;;;;;;11.75;3.00;;;21.20;58.20;;;;;;5060830;28;20202;-59
2023/09/30 14:00:34;;;;;;;8.48;2.63;;;21.30;58.70;;;;;;5073273;28;20226;-57
2023/09/30 14:03:02;;;;;;;7.82;3.08;;;21.20;58.20;;;;;;5071536;28;20198;-58
2023/09/30 14:05:31;;;;;;;8.98;3.40;;;21.30;58.30;;;;;;5073968;28;20221;-58
2023/09/30 14:08:01;;;;;;;8.88;3.50;;;21.30;58.40;;;;;;5045787;28;20258;-62
2023/09/30 14:13:12;;;;;;;21.27;3.97;;;21.30;58.40;;;;;;5037675;28;20609;-60
2023/09/30 14:15:39;;;;;;;13.90;3.47;;;21.30;58.40;;;;;;5074842;28;20758;-56
2023/09/30 14:18:07;;;;;;;9.23;2.92;;;21.40;58.50;;;;;;5073477;28;20225;-59
2023/09/30 14:20:35;;;;;;;6.80;2.97;;;21.40;58.50;;;;;;5076815;28;20310;-59
2023/09/30 14:23:03;;;;;;;9.30;3.58;;;21.40;58.50;;;;;;5075955;28;20197;-58
2023/09/30 14:25:29;;;;;;;7.75;3.50;;;21.40;58.40;;;;;;5070269;28;20228;-58
2023/09/30 14:27:59;;;;;;;11.70;3.67;;;21.40;58.40;;;;;;5074450;28;20203;-57
2023/09/30 14:30:28;;;;;;;10.23;3.30;;;21.50;58.40;;;;;;5077402;28;20223;-54
2023/09/30 14:32:55;;;;;;;6.97;3.40;;;21.50;58.40;;;;;;5077293;28;20218;-57
2023/09/30 14:35:22;;;;;;;7.40;3.58;;;21.50;58.40;;;;;;5084155;28;20225;-62
2023/09/30 14:37:48;;;;;;;6.95;3.50;;;21.50;58.30;;;;;;5074821;28;20190;-57
2023/09/30 14:40:15;;;;;;;15.40;3.70;;;21.60;58.30;;;;;;5081136;28;20227;-57
2023/09/30 14:42:42;;;;;;;9.52;3.55;;;21.60;58.20;;;;;;5076817;28;20201;-59
2023/09/30 14:45:10;;;;;;;7.90;3.42;;;21.60;58.20;;;;;;5079522;28;20190;-59
2023/09/30 14:47:39;;;;;;;10.38;3.78;;;21.60;58.20;;;;;;5072725;28;20289;-56
2023/09/30 14:50:08;;;;;;;7.35;3.45;;;21.60;58.20;;;;;;5055292;28;20202;-61
2023/09/30 14:52:35;;;;;;;11.25;4.05;;;21.70;58.50;;;;;;5067437;28;20244;-60
2023/09/30 14:55:01;;;;;;;12.40;4.03;;;21.60;58.40;;;;;;5077362;28;20289;-61
2023/09/30 14:57:29;;;;;;;11.00;3.72;;;21.70;58.50;;;;;;5080224;28;20291;-61
2023/09/30 14:59:59;;;;;;;11.68;3.50;;;21.70;58.50;;;;;;5082604;28;20201;-61
2023/09/30 15:02:26;;;;;;;8.85;3.35;;;21.70;58.60;;;;;;5081801;28;20244;-61
2023/09/30 15:04:55;;;;;;;14.20;3.90;;;21.70;58.60;;;;;;5079387;28;20195;-50
2023/09/30 15:07:25;;;;;;;8.13;3.60;;;21.70;58.50;;;;;;5083898;28;20267;-60
2023/09/30 15:09:54;;;;;;;9.45;3.63;;;21.80;58.50;;;;;;5080583;28;20202;-57
2023/09/30 15:12:21;;;;;;;8.88;3.65;;;21.80;58.30;;;;;;5082228;28;20249;-59
2023/09/30 15:14:52;;;;;;;9.05;3.42;;;21.80;58.40;;;;;;5083758;28;20209;-52
2023/09/30 15:17:19;;;;;;;9.43;3.70;;;21.80;58.50;;;;;;5083868;28;20218;-55
2023/09/30 15:22:28;;;;;;;11.65;4.50;;;21.80;58.40;;;;;;5070118;28;20228;-57
2023/09/30 15:24:56;;;;;;;11.45;3.90;;;21.80;58.30;;;;;;5083773;28;20213;-56
2023/09/30 15:27:26;;;;;;;9.40;4.03;;;21.80;58.20;;;;;;5081193;28;20306;-58
2023/09/30 15:29:54;;;;;;;10.50;3.88;;;21.80;58.20;;;;;;5079855;28;20303;-58
2023/09/30 15:32:22;;;;;;;11.43;4.20;;;21.80;58.10;;;;;;5078684;28;20240;-51
2023/09/30 15:34:49;;;;;;;11.48;3.88;;;21.70;58.00;;;;;;5076562;28;20676;-59
2023/09/30 15:37:16;;;;;;;11.45;4.68;;;21.70;58.00;;;;;;5076511;28;20258;-55
2023/09/30 15:39:46;;;;;;;12.32;3.83;;;21.80;58.00;;;;;;5080156;28;20202;-60
2023/09/30 15:48:34;;;;;;;14.10;4.55;;;21.70;57.90;;;;;;4991608;28;20212;-57
2023/09/30 15:57:27;;;;;;;9.27;4.47;;;21.80;57.90;;;;;;5015067;28;20220;-57
2023/09/30 15:59:54;;;;;;;11.05;4.57;;;21.80;57.80;;;;;;5023403;28;20192;-58
2023/09/30 16:02:41;;;;;;;;;;;;;;;;;;;;;
2023/09/30 16:11:30;;;;;;;10.38;4.38;;;21.80;57.90;;;;;;4909077;28;20239;-59
2023/09/30 16:20:24;;;;;;;8.63;4.20;;;21.70;57.50;;;;;;4939009;29;20195;-60
2023/09/30 16:22:56;;;;;;;11.88;4.60;;;21.70;57.50;;;;;;4949928;29;20228;-60
2023/09/30 16:25:26;;;;;;;11.23;4.85;;;21.60;57.50;;;;;;4950070;29;20208;-60
2023/09/30 16:27:54;;;;;;;11.55;5.03;;;21.60;57.40;;;;;;4955228;28;20301;-58
2023/09/30 16:30:22;;;;;;;9.43;4.22;;;21.50;58.00;;;;;;4949828;29;20964;-60
2023/09/30 16:32:51;;;;;;;11.23;4.90;;;21.50;57.40;;;;;;4949566;29;20724;-60
2023/09/30 16:35:18;;;;;;;10.55;4.60;;;21.50;58.00;;;;;;4950084;29;20235;-60
2023/09/30 16:37:45;;;;;;;10.70;4.82;;;21.40;57.40;;;;;;4952696;28;20255;-65
2023/09/30 16:40:12;;;;;;;10.48;4.60;;;21.40;57.40;;;;;;4955101;29;20682;-66
2023/09/30 16:42:39;;;;;;;10.35;4.57;;;21.40;57.40;;;;;;4992592;28;20225;-61
2023/09/30 16:45:08;;;;;;;9.23;4.90;;;21.30;57.60;;;;;;5032333;28;20203;-60
2023/09/30 16:47:37;;;;;;;10.50;4.65;;;21.30;57.40;;;;;;5075711;28;20567;-61
2023/09/30 16:50:04;;;;;;;9.63;4.03;;;21.30;57.40;;;;;;5075531;28;20226;-61
2023/09/30 16:52:31;;;;;;;10.50;4.55;;;21.30;57.50;;;;;;5075016;28;20708;-61
2023/09/30 16:54:59;;;;;;;9.65;4.25;;;21.30;57.50;;;;;;5075363;28;20194;-61
2023/09/30 16:57:26;;;;;;;8.90;4.43;;;21.20;57.40;;;;;;5075216;28;20219;-61
2023/09/30 16:59:54;;;;;;;9.43;5.05;;;21.20;57.50;;;;;;5075251;28;20609;-61
2023/09/30 17:02:51;;;;;;;13.68;5.05;;;21.20;57.60;;;;;;5075039;28;20219;-61
2023/09/30 17:09:26;;;;;;;10.07;4.65;;;21.10;57.60;;;;;;4974008;28;20665;-59
2023/09/30 17:22:48;;;;;;;;;;;;;;;;;;;;;
2023/09/30 17:32:15;;;;;;;12.23;4.72;;;21.00;58.10;;;;;;5119224;27;20299;-61
2023/09/30 17:42:31;;;;;;;10.23;4.65;;;20.90;58.30;;;;;;5109990;28;20204;-61
2023/09/30 17:55:17;;;;;;;10.50;4.65;;;20.90;58.50;;;;;;5109766;28;20222;-57
2023/09/30 17:57:52;;;;;;;10.85;4.72;;;20.90;58.70;;;;;;5110164;28;20217;-61
2023/09/30 18:11:22;;;;;;;11.27;4.60;;;20.80;58.90;;;;;;5085387;28;20663;-64
2023/09/30 18:14:06;;;;;;;;;;;;;;;;;;;;;
2023/09/30 18:53:56;;;;;;;8.73;4.43;;;20.70;59.20;;;;;;4806338;29;20257;-63
2023/09/30 18:56:28;;;;;;;10.30;4.63;;;20.70;59.20;;;;;;4860247;29;20223;-64
2023/09/30 18:59:02;;;;;;;9.90;4.78;;;20.70;59.20;;;;;;4860044;29;20195;-63
2023/09/30 19:02:05;;;;;;;11.02;4.75;;;20.70;59.20;;;;;;4859656;29;20233;-66
2023/09/30 19:04:35;;;;;;;9.90;4.55;;;20.70;59.20;;;;;;4860274;29;20290;-66
2023/09/30 20:38:55;;;;;;;9.38;4.10;;;20.50;59.60;;;;;;4888588;29;20728;-65
2023/09/30 21:46:05;;;;;;;10.23;4.90;;;20.40;59.70;;;;;;4826400;29;20206;-66
2023/09/30 22:42:39;;;;;;;8.98;4.80;;;20.40;60.00;;;;;;5010556;28;20256;-65
